Погода Высочена 2 недели

Мазовецкое воеводство, Польша

25 мая-07 июня
  • 25мая
    Сегодня
    +13°
    +28°
    Небольшая облачность
    ВремяПогодаТемператураВлажностьДавлениеВетер, м/сВероятность осадков
    02:00Практически безоблачно+17°C55 %754 мм3.9 м/с2 %
    05:00Ясно и безоблачно+15°C66 %754 мм3.2 м/с2 %
    08:00Небольшая облачность+20°C55 %754 мм3.7 м/с2 %
    11:00Облачно с прояснениями+25°C42 %754 мм3.9 м/с2 %
    14:00Небольшая облачность+28°C34 %753 мм3.7 м/с29 %
    17:00Небольшая облачность, возможен дождь с грозой+25°C50 %754 мм2.4 м/с50 %
    20:00Облачно с прояснениями+22°C59 %754 мм2.5 м/с19 %
    23:00Облачно с прояснениями+17°C72 %754 мм2.3 м/с1 %
  • 26мая
    Воскресенье
    +13°
    +28°
    Небольшая облачность
    ВремяПогодаТемператураВлажностьДавлениеВетер, м/сВероятность осадков
    02:00Практически безоблачно+15°C72 %754 мм2.5 м/с2 %
    05:00Облачно с прояснениями+14°C77 %754 мм2.4 м/с2 %
    08:00Облачно с прояснениями+19°C63 %755 мм3.6 м/с7 %
    11:00Ясно и безоблачно+24°C47 %755 мм3.3 м/с2 %
    14:00Небольшая облачность+25°C34 %755 мм3.4 м/с5 %
    17:00Облачно с прояснениями+27°C26 %754 мм3.5 м/с9 %
    20:00Облачно с прояснениями+24°C36 %754 мм3.0 м/с5 %
    23:00Ясно и безоблачно+17°C38 %755 мм3.7 м/с2 %
  • 27мая
    Понедельник
    +12°
    +28°
    Ясно и безоблачно
    ВремяПогодаТемператураВлажностьДавлениеВетер, м/сВероятность осадков
    02:00Ясно и безоблачно+15°C42 %755 мм4.0 м/с2 %
    05:00Ясно и безоблачно+13°C51 %755 мм3.4 м/с2 %
    08:00Ясно и безоблачно+19°C47 %755 мм3.5 м/с2 %
    11:00Ясно и безоблачно+26°C31 %755 мм3.7 м/с2 %
    14:00Ясно и безоблачно+27°C22 %754 мм3.8 м/с2 %
    17:00Ясно и безоблачно+28°C21 %753 мм4.0 м/с2 %
    20:00Ясно и безоблачно+24°C32 %753 мм2.2 м/с2 %
    23:00Ясно и безоблачно+17°C36 %753 мм4.3 м/с2 %
  • 28мая
    Вторник
    +13°
    +29°
    Ясно и безоблачно
    ВремяПогодаТемператураВлажностьДавлениеВетер, м/сВероятность осадков
    02:00Ясно и безоблачно+14°C45 %753 мм3.1 м/с2 %
    05:00Ясно и безоблачно+12°C59 %753 мм2.7 м/с2 %
    08:00Ясно и безоблачно+20°C50 %753 мм2.7 м/с2 %
    11:00Небольшая облачность+26°C29 %753 мм3.8 м/с2 %
    14:00Ясно и безоблачно+26°C24 %752 мм3.6 м/с2 %
    17:00Небольшая облачность+28°C21 %751 мм2.9 м/с2 %
    20:00Ясно и безоблачно+24°C30 %750 мм3.3 м/с2 %
    23:00Ясно и безоблачно+18°C34 %750 мм3.8 м/с2 %
  • 29мая
    Среда
    +12°
    +27°
    Небольшая облачность
    ВремяПогодаТемператураВлажностьДавлениеВетер, м/сВероятность осадков
    02:00Небольшая облачность+16°C43 %750 мм3.3 м/с2 %
    05:00Ясно и безоблачно+13°C56 %750 мм2.4 м/с2 %
    08:00Облачно с прояснениями+20°C50 %750 мм2.0 м/с2 %
    11:00Облачно с прояснениями+26°C27 %750 мм1.9 м/с6 %
    14:00Небольшая облачность+25°C26 %749 мм3.7 м/с20 %
    17:00Практически безоблачно+26°C27 %747 мм2.4 м/с35 %
    20:00Практически безоблачно+24°C34 %747 мм1.9 м/с16 %
    23:00Практически безоблачно+17°C44 %747 мм2.1 м/с5 %
Мы используем cookies
Соглашаюсь